CheckWX is a tool to help pilots better visualize weather data.  It is not intended as a substitute for an official pre-flight weather briefing.

11:17:06 UTC

PANN METAR
Nenana Municipal Airport
Nenana, Alaska, USA
Current

24 mins ago

PANN 171053Z AUTO 22003KT 10SM OVC033 08/06 A2967 RMK AO2 SLP054 T00830061 TSNO
Observed
Sep-17 @ 10:53 UTC
Wind
  • 220° at 3 KTS
Visibility
10 SM
Flight Rules
VFR
Cloud Levels
  • Overcast at 3,300' AGL
Temperature
C / 46°F
Dewpoint
C / 43°F
Humidity
87%
Altimeter
29.67" Hg
Pressure
1004.72 hPa
Previous

1 hour ago

PANN 170953Z AUTO 00000KT 10SM OVC034 08/07 A2968 RMK AO2 SLP056 T00780067 TSNO
Observed
Sep-17 @ 09:53 UTC
Visibility
10 SM
Flight Rules
VFR
Cloud Levels
  • Overcast at 3,400' AGL
Temperature
C / 46°F
Dewpoint
C / 45°F
Humidity
93%
Altimeter
29.68" Hg
Pressure
1005.12 hPa
Previous

2 hours ago

PANN 170853Z AUTO 24003KT 10SM BKN044 OVC055 08/07 A2967 RMK AO2 RAE31 SLP053 P0001 60002 T00780067 401330067 51007 TSNO
Observed
Sep-17 @ 08:53 UTC
Wind
  • 240° at 3 KTS
Visibility
10 SM
Flight Rules
VFR
Cloud Levels
  • Broken at 4,400' AGL
  • Overcast at 5,500' AGL
Temperature
C / 46°F
Dewpoint
C / 45°F
Humidity
93%
Altimeter
29.67" Hg
Pressure
1004.72 hPa
Current Rain
0.01"